sensor_id;sensor_type;location;lat;lon;timestamp;P1;durP1;ratioP1;P2;durP2;ratioP2
43919;SDS011;29578;51.946;5.874;2023-11-21T00:07:09;1.23;;;0.90;;
43919;SDS011;29578;51.946;5.874;2023-11-21T00:09:35;1.17;;;0.88;;
43919;SDS011;29578;51.946;5.874;2023-11-21T00:12:01;1.85;;;1.10;;
43919;SDS011;29578;51.946;5.874;2023-11-21T00:14:28;1.90;;;1.08;;
43919;SDS011;29578;51.946;5.874;2023-11-21T00:16:53;1.45;;;1.10;;
43919;SDS011;29578;51.946;5.874;2023-11-21T00:19:19;1.08;;;0.75;;
43919;SDS011;29578;51.946;5.874;2023-11-21T00:21:45;1.67;;;1.20;;
43919;SDS011;29578;51.946;5.874;2023-11-21T00:24:11;2.60;;;1.23;;
43919;SDS011;29578;51.946;5.874;2023-11-21T00:26:39;2.30;;;1.20;;
43919;SDS011;29578;51.946;5.874;2023-11-21T00:29:05;2.20;;;1.30;;
43919;SDS011;29578;51.946;5.874;2023-11-21T00:31:35;2.42;;;1.30;;
43919;SDS011;29578;51.946;5.874;2023-11-21T00:34:03;2.45;;;1.30;;
43919;SDS011;29578;51.946;5.874;2023-11-21T00:36:30;2.35;;;1.35;;
43919;SDS011;29578;51.946;5.874;2023-11-21T00:38:57;2.13;;;1.08;;
43919;SDS011;29578;51.946;5.874;2023-11-21T00:41:23;2.00;;;1.20;;
43919;SDS011;29578;51.946;5.874;2023-11-21T00:43:49;1.52;;;1.00;;
43919;SDS011;29578;51.946;5.874;2023-11-21T00:46:14;2.63;;;1.20;;
43919;SDS011;29578;51.946;5.874;2023-11-21T00:48:40;2.35;;;1.30;;
43919;SDS011;29578;51.946;5.874;2023-11-21T00:51:06;2.75;;;1.33;;
43919;SDS011;29578;51.946;5.874;2023-11-21T00:53:32;3.60;;;1.40;;
43919;SDS011;29578;51.946;5.874;2023-11-21T00:55:57;1.65;;;1.23;;
43919;SDS011;29578;51.946;5.874;2023-11-21T00:58:24;1.58;;;1.05;;
43919;SDS011;29578;51.946;5.874;2023-11-21T01:00:49;2.90;;;1.40;;
43919;SDS011;29578;51.946;5.874;2023-11-21T01:03:15;1.38;;;0.98;;
43919;SDS011;29578;51.946;5.874;2023-11-21T01:05:41;2.53;;;1.33;;
43919;SDS011;29578;51.946;5.874;2023-11-21T01:08:07;2.08;;;1.40;;
43919;SDS011;29578;51.946;5.874;2023-11-21T01:10:33;1.45;;;1.10;;
43919;SDS011;29578;51.946;5.874;2023-11-21T01:12:59;2.05;;;1.35;;
43919;SDS011;29578;51.946;5.874;2023-11-21T01:15:25;1.98;;;1.20;;
43919;SDS011;29578;51.946;5.874;2023-11-21T01:17:51;1.98;;;1.13;;
43919;SDS011;29578;51.946;5.874;2023-11-21T01:20:17;2.10;;;1.25;;
43919;SDS011;29578;51.946;5.874;2023-11-21T01:22:43;1.98;;;0.90;;
43919;SDS011;29578;51.946;5.874;2023-11-21T01:25:09;1.92;;;1.20;;
43919;SDS011;29578;51.946;5.874;2023-11-21T01:27:35;1.83;;;1.17;;
43919;SDS011;29578;51.946;5.874;2023-11-21T01:30:03;2.58;;;1.30;;
43919;SDS011;29578;51.946;5.874;2023-11-21T01:32:29;1.40;;;1.00;;
43919;SDS011;29578;51.946;5.874;2023-11-21T01:34:55;1.73;;;1.15;;
43919;SDS011;29578;51.946;5.874;2023-11-21T01:37:21;1.92;;;1.30;;
43919;SDS011;29578;51.946;5.874;2023-11-21T01:39:47;2.08;;;1.20;;
43919;SDS011;29578;51.946;5.874;2023-11-21T01:42:13;1.60;;;1.00;;
43919;SDS011;29578;51.946;5.874;2023-11-21T01:44:39;1.52;;;1.10;;
43919;SDS011;29578;51.946;5.874;2023-11-21T01:47:06;2.92;;;1.35;;
43919;SDS011;29578;51.946;5.874;2023-11-21T01:49:33;2.90;;;1.40;;
43919;SDS011;29578;51.946;5.874;2023-11-21T01:51:59;3.45;;;1.65;;
43919;SDS011;29578;51.946;5.874;2023-11-21T01:54:25;2.25;;;1.40;;
43919;SDS011;29578;51.946;5.874;2023-11-21T01:56:51;1.92;;;1.30;;
43919;SDS011;29578;51.946;5.874;2023-11-21T01:59:18;2.20;;;1.13;;
43919;SDS011;29578;51.946;5.874;2023-11-21T02:01:47;2.15;;;1.30;;
43919;SDS011;29578;51.946;5.874;2023-11-21T02:04:15;3.03;;;1.45;;
43919;SDS011;29578;51.946;5.874;2023-11-21T02:06:41;2.58;;;1.30;;
43919;SDS011;29578;51.946;5.874;2023-11-21T02:09:07;3.88;;;1.48;;
43919;SDS011;29578;51.946;5.874;2023-11-21T02:11:34;3.35;;;1.30;;
43919;SDS011;29578;51.946;5.874;2023-11-21T02:14:00;2.72;;;1.52;;
43919;SDS011;29578;51.946;5.874;2023-11-21T02:16:26;3.42;;;1.58;;
43919;SDS011;29578;51.946;5.874;2023-11-21T02:18:52;2.08;;;1.25;;
43919;SDS011;29578;51.946;5.874;2023-11-21T02:21:18;2.25;;;1.30;;
43919;SDS011;29578;51.946;5.874;2023-11-21T02:23:45;2.65;;;1.05;;
43919;SDS011;29578;51.946;5.874;2023-11-21T02:26:12;2.83;;;1.30;;
43919;SDS011;29578;51.946;5.874;2023-11-21T02:28:39;2.65;;;1.35;;
43919;SDS011;29578;51.946;5.874;2023-11-21T02:31:05;1.33;;;0.93;;
43919;SDS011;29578;51.946;5.874;2023-11-21T02:33:32;1.88;;;1.15;;
43919;SDS011;29578;51.946;5.874;2023-11-21T02:35:59;2.05;;;1.30;;
43919;SDS011;29578;51.946;5.874;2023-11-21T02:38:25;2.08;;;1.30;;
43919;SDS011;29578;51.946;5.874;2023-11-21T02:40:51;2.25;;;1.13;;
43919;SDS011;29578;51.946;5.874;2023-11-21T02:43:17;1.80;;;1.13;;
43919;SDS011;29578;51.946;5.874;2023-11-21T02:45:42;2.88;;;1.10;;
43919;SDS011;29578;51.946;5.874;2023-11-21T02:48:08;2.28;;;1.30;;
43919;SDS011;29578;51.946;5.874;2023-11-21T02:50:34;2.70;;;1.30;;
43919;SDS011;29578;51.946;5.874;2023-11-21T02:53:00;3.35;;;1.50;;
43919;SDS011;29578;51.946;5.874;2023-11-21T02:55:27;1.95;;;1.23;;
43919;SDS011;29578;51.946;5.874;2023-11-21T02:57:53;3.90;;;1.40;;
43919;SDS011;29578;51.946;5.874;2023-11-21T03:00:21;3.33;;;1.40;;
43919;SDS011;29578;51.946;5.874;2023-11-21T03:02:49;2.30;;;1.23;;
43919;SDS011;29578;51.946;5.874;2023-11-21T03:05:15;3.20;;;1.50;;
43919;SDS011;29578;51.946;5.874;2023-11-21T03:07:40;3.28;;;1.63;;
43919;SDS011;29578;51.946;5.874;2023-11-21T03:10:07;2.53;;;1.50;;
43919;SDS011;29578;51.946;5.874;2023-11-21T03:12:36;2.85;;;1.67;;
43919;SDS011;29578;51.946;5.874;2023-11-21T03:15:03;3.42;;;1.83;;
43919;SDS011;29578;51.946;5.874;2023-11-21T03:17:31;3.25;;;1.67;;
43919;SDS011;29578;51.946;5.874;2023-11-21T03:20:00;3.72;;;1.73;;
43919;SDS011;29578;51.946;5.874;2023-11-21T03:22:26;2.90;;;1.50;;
43919;SDS011;29578;51.946;5.874;2023-11-21T03:24:51;2.88;;;1.30;;
43919;SDS011;29578;51.946;5.874;2023-11-21T03:27:18;4.13;;;1.50;;
43919;SDS011;29578;51.946;5.874;2023-11-21T03:29:44;3.85;;;1.63;;
43919;SDS011;29578;51.946;5.874;2023-11-21T03:32:11;3.03;;;1.60;;
43919;SDS011;29578;51.946;5.874;2023-11-21T03:34:52;4.18;;;1.85;;
43919;SDS011;29578;51.946;5.874;2023-11-21T03:37:23;3.83;;;1.85;;
43919;SDS011;29578;51.946;5.874;2023-11-21T03:39:50;2.95;;;1.45;;
43919;SDS011;29578;51.946;5.874;2023-11-21T03:42:16;2.22;;;1.40;;
43919;SDS011;29578;51.946;5.874;2023-11-21T03:44:41;1.90;;;1.05;;
43919;SDS011;29578;51.946;5.874;2023-11-21T03:47:07;1.73;;;1.08;;
43919;SDS011;29578;51.946;5.874;2023-11-21T03:49:33;4.35;;;1.75;;
43919;SDS011;29578;51.946;5.874;2023-11-21T03:51:59;3.30;;;1.45;;
43919;SDS011;29578;51.946;5.874;2023-11-21T03:54:24;2.03;;;1.20;;
43919;SDS011;29578;51.946;5.874;2023-11-21T03:56:50;2.78;;;1.30;;
43919;SDS011;29578;51.946;5.874;2023-11-21T03:59:17;2.00;;;1.25;;
43919;SDS011;29578;51.946;5.874;2023-11-21T04:01:42;1.73;;;0.95;;
43919;SDS011;29578;51.946;5.874;2023-11-21T04:04:08;1.90;;;1.25;;
43919;SDS011;29578;51.946;5.874;2023-11-21T04:06:34;1.90;;;1.10;;
43919;SDS011;29578;51.946;5.874;2023-11-21T04:09:01;1.92;;;1.10;;
43919;SDS011;29578;51.946;5.874;2023-11-21T04:11:29;1.48;;;0.90;;
43919;SDS011;29578;51.946;5.874;2023-11-21T04:13:55;1.15;;;0.82;;
43919;SDS011;29578;51.946;5.874;2023-11-21T04:16:21;2.17;;;1.17;;
43919;SDS011;29578;51.946;5.874;2023-11-21T04:18:47;2.13;;;1.30;;
43919;SDS011;29578;51.946;5.874;2023-11-21T04:21:13;2.25;;;1.30;;
43919;SDS011;29578;51.946;5.874;2023-11-21T04:23:39;3.42;;;1.40;;
43919;SDS011;29578;51.946;5.874;2023-11-21T04:26:05;1.98;;;1.13;;
43919;SDS011;29578;51.946;5.874;2023-11-21T04:28:31;2.70;;;1.40;;
43919;SDS011;29578;51.946;5.874;2023-11-21T04:30:57;2.22;;;1.42;;
43919;SDS011;29578;51.946;5.874;2023-11-21T04:33:23;2.38;;;1.27;;
43919;SDS011;29578;51.946;5.874;2023-11-21T04:35:49;1.92;;;1.20;;
43919;SDS011;29578;51.946;5.874;2023-11-21T04:38:14;3.83;;;1.77;;
43919;SDS011;29578;51.946;5.874;2023-11-21T04:40:40;2.13;;;1.30;;
43919;SDS011;29578;51.946;5.874;2023-11-21T04:43:06;1.95;;;1.23;;
43919;SDS011;29578;51.946;5.874;2023-11-21T04:45:31;3.17;;;1.20;;
43919;SDS011;29578;51.946;5.874;2023-11-21T04:47:57;2.30;;;1.27;;
43919;SDS011;29578;51.946;5.874;2023-11-21T04:50:23;2.50;;;1.40;;
43919;SDS011;29578;51.946;5.874;2023-11-21T04:52:50;1.98;;;1.20;;
43919;SDS011;29578;51.946;5.874;2023-11-21T04:55:16;1.50;;;0.85;;
43919;SDS011;29578;51.946;5.874;2023-11-21T04:57:42;2.03;;;1.20;;
43919;SDS011;29578;51.946;5.874;2023-11-21T05:00:09;2.50;;;1.17;;
43919;SDS011;29578;51.946;5.874;2023-11-21T05:02:35;3.15;;;1.30;;
43919;SDS011;29578;51.946;5.874;2023-11-21T05:05:01;2.10;;;1.17;;
43919;SDS011;29578;51.946;5.874;2023-11-21T05:07:27;2.00;;;1.27;;
43919;SDS011;29578;51.946;5.874;2023-11-21T05:09:54;1.60;;;1.13;;
43919;SDS011;29578;51.946;5.874;2023-11-21T05:12:21;2.45;;;1.40;;
43919;SDS011;29578;51.946;5.874;2023-11-21T05:14:48;2.65;;;1.25;;
43919;SDS011;29578;51.946;5.874;2023-11-21T05:17:14;2.30;;;1.20;;
43919;SDS011;29578;51.946;5.874;2023-11-21T05:19:40;2.75;;;1.08;;
43919;SDS011;29578;51.946;5.874;2023-11-21T05:22:06;2.03;;;1.30;;
43919;SDS011;29578;51.946;5.874;2023-11-21T05:24:33;2.38;;;1.20;;
43919;SDS011;29578;51.946;5.874;2023-11-21T05:27:00;1.80;;;1.15;;
43919;SDS011;29578;51.946;5.874;2023-11-21T05:29:25;3.05;;;1.33;;
43919;SDS011;29578;51.946;5.874;2023-11-21T05:31:51;2.72;;;1.42;;
43919;SDS011;29578;51.946;5.874;2023-11-21T05:34:18;2.70;;;1.63;;
43919;SDS011;29578;51.946;5.874;2023-11-21T05:36:45;2.15;;;1.40;;
43919;SDS011;29578;51.946;5.874;2023-11-21T05:39:11;1.70;;;1.23;;
43919;SDS011;29578;51.946;5.874;2023-11-21T05:41:37;2.45;;;1.58;;
43919;SDS011;29578;51.946;5.874;2023-11-21T05:44:03;2.05;;;1.45;;
43919;SDS011;29578;51.946;5.874;2023-11-21T05:46:29;1.70;;;1.00;;
43919;SDS011;29578;51.946;5.874;2023-11-21T05:48:54;1.58;;;1.00;;
43919;SDS011;29578;51.946;5.874;2023-11-21T05:51:20;3.45;;;1.42;;
43919;SDS011;29578;51.946;5.874;2023-11-21T05:53:46;1.85;;;1.15;;
43919;SDS011;29578;51.946;5.874;2023-11-21T05:56:12;2.50;;;1.40;;
43919;SDS011;29578;51.946;5.874;2023-11-21T05:58:38;1.60;;;1.00;;
43919;SDS011;29578;51.946;5.874;2023-11-21T06:01:05;2.63;;;1.10;;
43919;SDS011;29578;51.946;5.874;2023-11-21T06:03:34;1.85;;;1.20;;
43919;SDS011;29578;51.946;5.874;2023-11-21T06:06:00;2.00;;;1.30;;
43919;SDS011;29578;51.946;5.874;2023-11-21T06:08:25;1.92;;;1.10;;
43919;SDS011;29578;51.946;5.874;2023-11-21T06:25:32;1.88;;;1.10;;
43919;SDS011;29578;51.946;5.874;2023-11-21T06:28:01;2.08;;;1.23;;
43919;SDS011;29578;51.946;5.874;2023-11-21T06:30:27;3.13;;;1.50;;
43919;SDS011;29578;51.946;5.874;2023-11-21T06:32:53;2.22;;;1.30;;
43919;SDS011;29578;51.946;5.874;2023-11-21T06:35:21;3.15;;;1.55;;
43919;SDS011;29578;51.946;5.874;2023-11-21T06:37:47;4.07;;;1.90;;
43919;SDS011;29578;51.946;5.874;2023-11-21T06:40:13;4.10;;;1.80;;
43919;SDS011;29578;51.946;5.874;2023-11-21T06:42:40;5.22;;;2.25;;
43919;SDS011;29578;51.946;5.874;2023-11-21T06:45:06;2.88;;;1.58;;
43919;SDS011;29578;51.946;5.874;2023-11-21T06:47:32;3.88;;;1.70;;
43919;SDS011;29578;51.946;5.874;2023-11-21T06:49:58;2.50;;;1.50;;
43919;SDS011;29578;51.946;5.874;2023-11-21T06:52:25;3.35;;;1.83;;
43919;SDS011;29578;51.946;5.874;2023-11-21T06:54:51;2.75;;;1.45;;
43919;SDS011;29578;51.946;5.874;2023-11-21T06:57:16;3.42;;;1.67;;
43919;SDS011;29578;51.946;5.874;2023-11-21T06:59:42;2.72;;;1.50;;
43919;SDS011;29578;51.946;5.874;2023-11-21T07:02:08;3.30;;;1.45;;
43919;SDS011;29578;51.946;5.874;2023-11-21T07:04:34;3.42;;;1.58;;
43919;SDS011;29578;51.946;5.874;2023-11-21T07:07:01;2.55;;;1.70;;
43919;SDS011;29578;51.946;5.874;2023-11-21T07:09:28;3.97;;;1.80;;
43919;SDS011;29578;51.946;5.874;2023-11-21T07:11:54;2.40;;;1.10;;
43919;SDS011;29578;51.946;5.874;2023-11-21T07:14:20;3.13;;;1.52;;
43919;SDS011;29578;51.946;5.874;2023-11-21T07:16:46;2.33;;;1.20;;
43919;SDS011;29578;51.946;5.874;2023-11-21T07:19:12;2.50;;;1.35;;
43919;SDS011;29578;51.946;5.874;2023-11-21T07:21:38;3.25;;;1.70;;
43919;SDS011;29578;51.946;5.874;2023-11-21T07:24:05;2.38;;;1.50;;
43919;SDS011;29578;51.946;5.874;2023-11-21T07:26:32;2.70;;;1.63;;
43919;SDS011;29578;51.946;5.874;2023-11-21T07:28:58;3.35;;;1.60;;
43919;SDS011;29578;51.946;5.874;2023-11-21T07:31:25;2.38;;;1.45;;
43919;SDS011;29578;51.946;5.874;2023-11-21T07:33:51;2.72;;;1.38;;
43919;SDS011;29578;51.946;5.874;2023-11-21T07:36:17;2.17;;;1.33;;
43919;SDS011;29578;51.946;5.874;2023-11-21T07:38:44;2.15;;;1.30;;
43919;SDS011;29578;51.946;5.874;2023-11-21T07:41:10;2.78;;;1.55;;
43919;SDS011;29578;51.946;5.874;2023-11-21T07:43:36;2.75;;;1.52;;
43919;SDS011;29578;51.946;5.874;2023-11-21T07:46:02;3.08;;;1.50;;
43919;SDS011;29578;51.946;5.874;2023-11-21T07:48:30;3.15;;;1.38;;
43919;SDS011;29578;51.946;5.874;2023-11-21T07:50:57;3.95;;;1.40;;
43919;SDS011;29578;51.946;5.874;2023-11-21T07:53:24;3.33;;;1.70;;
43919;SDS011;29578;51.946;5.874;2023-11-21T07:55:51;2.95;;;1.60;;
43919;SDS011;29578;51.946;5.874;2023-11-21T07:58:17;2.65;;;1.52;;
43919;SDS011;29578;51.946;5.874;2023-11-21T08:00:43;3.35;;;1.73;;
43919;SDS011;29578;51.946;5.874;2023-11-21T08:03:09;3.20;;;1.88;;
43919;SDS011;29578;51.946;5.874;2023-11-21T08:05:36;3.70;;;1.63;;
43919;SDS011;29578;51.946;5.874;2023-11-21T08:08:02;3.60;;;1.90;;
43919;SDS011;29578;51.946;5.874;2023-11-21T08:10:28;3.80;;;1.90;;
43919;SDS011;29578;51.946;5.874;2023-11-21T08:12:54;3.05;;;1.70;;
43919;SDS011;29578;51.946;5.874;2023-11-21T08:15:20;2.80;;;1.60;;
43919;SDS011;29578;51.946;5.874;2023-11-21T08:17:46;2.30;;;1.35;;
43919;SDS011;29578;51.946;5.874;2023-11-21T08:20:12;2.13;;;1.30;;
43919;SDS011;29578;51.946;5.874;2023-11-21T08:22:41;2.65;;;1.50;;
43919;SDS011;29578;51.946;5.874;2023-11-21T08:25:07;5.13;;;2.20;;
43919;SDS011;29578;51.946;5.874;2023-11-21T08:27:34;4.85;;;1.80;;
43919;SDS011;29578;51.946;5.874;2023-11-21T08:30:00;2.28;;;1.40;;
43919;SDS011;29578;51.946;5.874;2023-11-21T08:32:26;3.78;;;1.67;;
43919;SDS011;29578;51.946;5.874;2023-11-21T08:34:52;2.97;;;1.63;;
43919;SDS011;29578;51.946;5.874;2023-11-21T08:37:17;2.85;;;1.60;;
43919;SDS011;29578;51.946;5.874;2023-11-21T08:39:44;3.58;;;1.60;;
43919;SDS011;29578;51.946;5.874;2023-11-21T08:42:10;2.90;;;1.40;;
43919;SDS011;29578;51.946;5.874;2023-11-21T08:44:35;3.78;;;1.77;;
43919;SDS011;29578;51.946;5.874;2023-11-21T08:47:01;1.77;;;1.42;;
43919;SDS011;29578;51.946;5.874;2023-11-21T08:49:27;2.92;;;1.60;;
43919;SDS011;29578;51.946;5.874;2023-11-21T08:51:54;3.80;;;1.65;;
43919;SDS011;29578;51.946;5.874;2023-11-21T08:54:22;3.35;;;1.92;;
43919;SDS011;29578;51.946;5.874;2023-11-21T08:56:48;2.80;;;1.60;;
43919;SDS011;29578;51.946;5.874;2023-11-21T08:59:15;3.47;;;1.67;;
43919;SDS011;29578;51.946;5.874;2023-11-21T09:01:41;2.45;;;1.48;;
43919;SDS011;29578;51.946;5.874;2023-11-21T09:04:07;2.72;;;1.70;;
43919;SDS011;29578;51.946;5.874;2023-11-21T09:06:33;2.95;;;1.60;;
43919;SDS011;29578;51.946;5.874;2023-11-21T09:08:58;3.60;;;1.80;;
43919;SDS011;29578;51.946;5.874;2023-11-21T09:11:24;3.47;;;1.75;;
43919;SDS011;29578;51.946;5.874;2023-11-21T09:13:52;3.58;;;1.60;;
43919;SDS011;29578;51.946;5.874;2023-11-21T09:16:18;3.22;;;1.63;;
43919;SDS011;29578;51.946;5.874;2023-11-21T09:18:44;4.03;;;1.80;;
43919;SDS011;29578;51.946;5.874;2023-11-21T09:21:10;3.33;;;1.75;;
43919;SDS011;29578;51.946;5.874;2023-11-21T09:23:36;4.35;;;2.00;;
43919;SDS011;29578;51.946;5.874;2023-11-21T09:26:02;3.13;;;1.60;;
43919;SDS011;29578;51.946;5.874;2023-11-21T09:28:27;4.07;;;1.73;;
43919;SDS011;29578;51.946;5.874;2023-11-21T09:30:53;4.70;;;1.80;;
43919;SDS011;29578;51.946;5.874;2023-11-21T09:33:19;3.22;;;1.52;;
43919;SDS011;29578;51.946;5.874;2023-11-21T09:35:45;3.60;;;1.77;;
43919;SDS011;29578;51.946;5.874;2023-11-21T09:38:12;3.80;;;1.65;;
43919;SDS011;29578;51.946;5.874;2023-11-21T09:40:38;3.70;;;1.58;;
43919;SDS011;29578;51.946;5.874;2023-11-21T09:43:05;3.80;;;1.88;;
43919;SDS011;29578;51.946;5.874;2023-11-21T09:45:36;3.22;;;1.67;;
43919;SDS011;29578;51.946;5.874;2023-11-21T09:48:04;3.53;;;1.70;;
43919;SDS011;29578;51.946;5.874;2023-11-21T09:50:31;3.85;;;2.00;;
43919;SDS011;29578;51.946;5.874;2023-11-21T09:53:14;5.45;;;2.17;;
43919;SDS011;29578;51.946;5.874;2023-11-21T09:55:46;4.38;;;2.13;;
43919;SDS011;29578;51.946;5.874;2023-11-21T09:58:13;4.03;;;1.80;;
43919;SDS011;29578;51.946;5.874;2023-11-21T10:00:41;5.32;;;2.30;;
43919;SDS011;29578;51.946;5.874;2023-11-21T10:03:07;4.40;;;2.10;;
43919;SDS011;29578;51.946;5.874;2023-11-21T10:05:34;5.43;;;2.22;;
43919;SDS011;29578;51.946;5.874;2023-11-21T10:08:00;3.60;;;1.88;;
43919;SDS011;29578;51.946;5.874;2023-11-21T10:10:26;3.50;;;1.80;;
43919;SDS011;29578;51.946;5.874;2023-11-21T10:12:55;2.88;;;1.60;;
43919;SDS011;29578;51.946;5.874;2023-11-21T10:15:22;3.80;;;1.52;;
43919;SDS011;29578;51.946;5.874;2023-11-21T10:17:50;4.15;;;2.10;;
43919;SDS011;29578;51.946;5.874;2023-11-21T10:20:19;5.90;;;1.98;;
43919;SDS011;29578;51.946;5.874;2023-11-21T10:22:45;3.60;;;1.83;;
43919;SDS011;29578;51.946;5.874;2023-11-21T10:25:11;3.60;;;2.00;;
43919;SDS011;29578;51.946;5.874;2023-11-21T10:27:40;3.95;;;1.85;;
43919;SDS011;29578;51.946;5.874;2023-11-21T10:30:07;3.70;;;1.80;;
43919;SDS011;29578;51.946;5.874;2023-11-21T10:32:38;3.63;;;1.73;;
43919;SDS011;29578;51.946;5.874;2023-11-21T10:35:05;3.97;;;1.90;;
43919;SDS011;29578;51.946;5.874;2023-11-21T10:37:36;3.22;;;1.70;;
43919;SDS011;29578;51.946;5.874;2023-11-21T10:40:05;3.35;;;1.55;;
43919;SDS011;29578;51.946;5.874;2023-11-21T10:42:37;3.45;;;1.77;;
43919;SDS011;29578;51.946;5.874;2023-11-21T10:45:04;4.30;;;1.90;;
43919;SDS011;29578;51.946;5.874;2023-11-21T10:47:40;3.10;;;1.92;;
43919;SDS011;29578;51.946;5.874;2023-11-21T10:50:07;3.67;;;1.85;;
43919;SDS011;29578;51.946;5.874;2023-11-21T10:52:36;4.07;;;1.83;;
43919;SDS011;29578;51.946;5.874;2023-11-21T10:55:15;4.25;;;1.92;;
43919;SDS011;29578;51.946;5.874;2023-11-21T10:57:43;3.33;;;1.70;;
43919;SDS011;29578;51.946;5.874;2023-11-21T11:00:13;3.03;;;1.70;;
43919;SDS011;29578;51.946;5.874;2023-11-21T11:02:41;3.03;;;1.50;;
43919;SDS011;29578;51.946;5.874;2023-11-21T11:05:08;3.42;;;1.65;;
43919;SDS011;29578;51.946;5.874;2023-11-21T11:07:36;3.40;;;1.63;;
43919;SDS011;29578;51.946;5.874;2023-11-21T11:12:39;1.92;;;1.15;;
43919;SDS011;29578;51.946;5.874;2023-11-21T11:15:06;2.15;;;1.30;;
43919;SDS011;29578;51.946;5.874;2023-11-21T11:17:35;2.72;;;1.50;;
43919;SDS011;29578;51.946;5.874;2023-11-21T11:20:04;2.10;;;1.25;;
43919;SDS011;29578;51.946;5.874;2023-11-21T11:22:41;3.30;;;1.50;;
43919;SDS011;29578;51.946;5.874;2023-11-21T11:28:29;3.67;;;1.42;;
43919;SDS011;29578;51.946;5.874;2023-11-21T11:34:19;2.80;;;1.30;;
43919;SDS011;29578;51.946;5.874;2023-11-21T11:36:56;2.30;;;1.23;;
43919;SDS011;29578;51.946;5.874;2023-11-21T11:39:41;3.55;;;1.50;;
43919;SDS011;29578;51.946;5.874;2023-11-21T11:42:11;2.72;;;1.55;;
43919;SDS011;29578;51.946;5.874;2023-11-21T11:44:47;2.92;;;1.60;;
43919;SDS011;29578;51.946;5.874;2023-11-21T11:47:25;2.22;;;1.27;;
43919;SDS011;29578;51.946;5.874;2023-11-21T11:50:01;2.80;;;1.38;;
43919;SDS011;29578;51.946;5.874;2023-11-21T11:52:34;2.75;;;1.40;;
43919;SDS011;29578;51.946;5.874;2023-11-21T11:55:09;2.78;;;1.50;;
43919;SDS011;29578;51.946;5.874;2023-11-21T11:57:36;3.53;;;1.50;;
43919;SDS011;29578;51.946;5.874;2023-11-21T12:00:08;2.30;;;1.30;;
43919;SDS011;29578;51.946;5.874;2023-11-21T12:02:41;2.10;;;1.30;;
43919;SDS011;29578;51.946;5.874;2023-11-21T12:05:10;2.05;;;1.20;;
43919;SDS011;29578;51.946;5.874;2023-11-21T12:10:20;2.03;;;1.20;;
43919;SDS011;29578;51.946;5.874;2023-11-21T12:12:50;2.22;;;1.20;;
43919;SDS011;29578;51.946;5.874;2023-11-21T12:15:18;3.22;;;1.40;;
43919;SDS011;29578;51.946;5.874;2023-11-21T12:17:46;2.10;;;1.17;;
43919;SDS011;29578;51.946;5.874;2023-11-21T12:20:12;1.85;;;1.27;;
43919;SDS011;29578;51.946;5.874;2023-11-21T12:22:41;2.45;;;1.23;;
43919;SDS011;29578;51.946;5.874;2023-11-21T12:25:08;2.67;;;1.50;;
43919;SDS011;29578;51.946;5.874;2023-11-21T12:27:34;3.78;;;1.60;;
43919;SDS011;29578;51.946;5.874;2023-11-21T12:30:00;3.00;;;1.30;;
43919;SDS011;29578;51.946;5.874;2023-11-21T12:32:26;1.65;;;1.13;;
43919;SDS011;29578;51.946;5.874;2023-11-21T12:34:51;2.72;;;1.30;;
43919;SDS011;29578;51.946;5.874;2023-11-21T12:37:17;2.42;;;1.10;;
43919;SDS011;29578;51.946;5.874;2023-11-21T12:39:43;1.52;;;1.08;;
43919;SDS011;29578;51.946;5.874;2023-11-21T12:42:09;2.05;;;1.20;;
43919;SDS011;29578;51.946;5.874;2023-11-21T12:44:35;2.70;;;1.45;;
43919;SDS011;29578;51.946;5.874;2023-11-21T12:47:02;2.67;;;1.27;;
43919;SDS011;29578;51.946;5.874;2023-11-21T12:49:28;3.28;;;1.40;;
43919;SDS011;29578;51.946;5.874;2023-11-21T12:51:54;2.20;;;1.38;;
43919;SDS011;29578;51.946;5.874;2023-11-21T12:54:20;3.67;;;1.40;;
43919;SDS011;29578;51.946;5.874;2023-11-21T12:56:46;3.28;;;1.40;;
43919;SDS011;29578;51.946;5.874;2023-11-21T12:59:12;2.72;;;1.40;;
43919;SDS011;29578;51.946;5.874;2023-11-21T13:01:41;2.40;;;1.15;;
43919;SDS011;29578;51.946;5.874;2023-11-21T13:04:07;2.67;;;1.33;;
43919;SDS011;29578;51.946;5.874;2023-11-21T13:06:35;3.63;;;1.48;;
43919;SDS011;29578;51.946;5.874;2023-11-21T13:09:06;3.38;;;1.58;;
43919;SDS011;29578;51.946;5.874;2023-11-21T13:11:36;1.90;;;1.30;;
43919;SDS011;29578;51.946;5.874;2023-11-21T13:14:02;3.00;;;1.60;;
43919;SDS011;29578;51.946;5.874;2023-11-21T13:16:28;2.15;;;1.38;;
43919;SDS011;29578;51.946;5.874;2023-11-21T13:18:55;4.32;;;1.70;;
43919;SDS011;29578;51.946;5.874;2023-11-21T13:21:21;4.43;;;2.00;;
43919;SDS011;29578;51.946;5.874;2023-11-21T13:23:47;3.60;;;1.80;;
43919;SDS011;29578;51.946;5.874;2023-11-21T13:26:16;3.03;;;1.60;;
43919;SDS011;29578;51.946;5.874;2023-11-21T13:28:41;3.20;;;1.50;;
43919;SDS011;29578;51.946;5.874;2023-11-21T13:31:11;4.13;;;1.90;;
43919;SDS011;29578;51.946;5.874;2023-11-21T13:33:56;3.53;;;1.77;;
43919;SDS011;29578;51.946;5.874;2023-11-21T13:36:29;3.90;;;1.90;;
43919;SDS011;29578;51.946;5.874;2023-11-21T13:38:57;4.20;;;2.00;;
43919;SDS011;29578;51.946;5.874;2023-11-21T13:41:24;4.20;;;1.92;;
43919;SDS011;29578;51.946;5.874;2023-11-21T13:43:55;4.13;;;1.70;;
43919;SDS011;29578;51.946;5.874;2023-11-21T13:46:40;3.42;;;1.80;;
43919;SDS011;29578;51.946;5.874;2023-11-21T13:49:06;2.63;;;1.30;;
43919;SDS011;29578;51.946;5.874;2023-11-21T13:51:35;3.72;;;1.95;;
43919;SDS011;29578;51.946;5.874;2023-11-21T13:54:06;2.63;;;1.42;;
43919;SDS011;29578;51.946;5.874;2023-11-21T13:56:35;4.15;;;1.70;;
43919;SDS011;29578;51.946;5.874;2023-11-21T13:59:02;3.30;;;1.50;;
43919;SDS011;29578;51.946;5.874;2023-11-21T14:01:41;3.10;;;1.55;;
43919;SDS011;29578;51.946;5.874;2023-11-21T14:04:23;3.78;;;1.70;;
43919;SDS011;29578;51.946;5.874;2023-11-21T14:07:03;2.97;;;1.50;;
43919;SDS011;29578;51.946;5.874;2023-11-21T14:09:45;2.55;;;1.65;;
43919;SDS011;29578;51.946;5.874;2023-11-21T14:12:11;3.95;;;1.80;;
43919;SDS011;29578;51.946;5.874;2023-11-21T14:14:38;3.45;;;1.52;;
43919;SDS011;29578;51.946;5.874;2023-11-21T14:17:04;3.00;;;1.67;;
43919;SDS011;29578;51.946;5.874;2023-11-21T14:19:32;2.63;;;1.55;;
43919;SDS011;29578;51.946;5.874;2023-11-21T14:21:59;2.67;;;1.40;;
43919;SDS011;29578;51.946;5.874;2023-11-21T14:24:25;2.63;;;1.58;;
43919;SDS011;29578;51.946;5.874;2023-11-21T14:26:51;3.65;;;1.60;;
43919;SDS011;29578;51.946;5.874;2023-11-21T14:29:18;2.53;;;1.52;;
43919;SDS011;29578;51.946;5.874;2023-11-21T14:31:45;3.05;;;1.55;;
43919;SDS011;29578;51.946;5.874;2023-11-21T14:34:11;2.65;;;1.30;;
43919;SDS011;29578;51.946;5.874;2023-11-21T14:36:38;2.67;;;1.20;;
43919;SDS011;29578;51.946;5.874;2023-11-21T14:39:05;3.25;;;1.60;;
43919;SDS011;29578;51.946;5.874;2023-11-21T14:41:34;3.60;;;1.60;;
43919;SDS011;29578;51.946;5.874;2023-11-21T14:44:01;2.83;;;1.30;;
43919;SDS011;29578;51.946;5.874;2023-11-21T14:46:29;2.38;;;1.33;;
43919;SDS011;29578;51.946;5.874;2023-11-21T14:48:55;2.50;;;1.40;;
43919;SDS011;29578;51.946;5.874;2023-11-21T14:51:27;1.98;;;1.23;;
43919;SDS011;29578;51.946;5.874;2023-11-21T14:53:57;3.47;;;1.53;;
43919;SDS011;29578;51.946;5.874;2023-11-21T14:56:32;2.42;;;1.20;;
43919;SDS011;29578;51.946;5.874;2023-11-21T14:58:59;2.65;;;1.30;;
43919;SDS011;29578;51.946;5.874;2023-11-21T15:01:32;3.22;;;1.60;;
43919;SDS011;29578;51.946;5.874;2023-11-21T15:04:18;2.25;;;1.13;;
43919;SDS011;29578;51.946;5.874;2023-11-21T15:06:58;2.50;;;1.45;;
43919;SDS011;29578;51.946;5.874;2023-11-21T15:09:24;3.47;;;1.50;;
43919;SDS011;29578;51.946;5.874;2023-11-21T15:14:51;3.70;;;1.70;;
43919;SDS011;29578;51.946;5.874;2023-11-21T15:17:19;2.53;;;1.40;;
43919;SDS011;29578;51.946;5.874;2023-11-21T15:19:55;3.25;;;1.67;;
43919;SDS011;29578;51.946;5.874;2023-11-21T15:22:21;3.65;;;1.80;;
43919;SDS011;29578;51.946;5.874;2023-11-21T15:24:47;4.00;;;1.92;;